sensor_id;sensor_type;location;lat;lon;timestamp;P1;durP1;ratioP1;P2;durP2;ratioP2
70467;SDS011;57934;51.532;7.684;2023-05-07T00:00:26;14.40;;;9.65;;
70467;SDS011;57934;51.532;7.684;2023-05-07T00:02:54;11.85;;;9.32;;
70467;SDS011;57934;51.532;7.684;2023-05-07T00:05:20;12.55;;;9.48;;
70467;SDS011;57934;51.532;7.684;2023-05-07T00:07:46;10.60;;;9.30;;
70467;SDS011;57934;51.532;7.684;2023-05-07T00:10:12;10.13;;;8.57;;
70467;SDS011;57934;51.532;7.684;2023-05-07T00:12:38;19.77;;;10.50;;
70467;SDS011;57934;51.532;7.684;2023-05-07T00:15:04;11.10;;;10.00;;
70467;SDS011;57934;51.532;7.684;2023-05-07T00:17:32;13.00;;;9.73;;
70467;SDS011;57934;51.532;7.684;2023-05-07T00:19:58;12.63;;;9.90;;
70467;SDS011;57934;51.532;7.684;2023-05-07T00:22:24;13.15;;;10.13;;
70467;SDS011;57934;51.532;7.684;2023-05-07T00:24:50;12.80;;;9.82;;
70467;SDS011;57934;51.532;7.684;2023-05-07T00:27:16;12.40;;;10.38;;
70467;SDS011;57934;51.532;7.684;2023-05-07T00:29:42;11.70;;;10.57;;
70467;SDS011;57934;51.532;7.684;2023-05-07T00:32:08;16.00;;;10.85;;
70467;SDS011;57934;51.532;7.684;2023-05-07T00:34:34;12.65;;;10.95;;
70467;SDS011;57934;51.532;7.684;2023-05-07T00:37:01;12.40;;;10.48;;
70467;SDS011;57934;51.532;7.684;2023-05-07T00:39:27;12.32;;;10.57;;
70467;SDS011;57934;51.532;7.684;2023-05-07T00:41:53;14.02;;;10.73;;
70467;SDS011;57934;51.532;7.684;2023-05-07T00:44:19;13.25;;;10.95;;
70467;SDS011;57934;51.532;7.684;2023-05-07T00:46:45;13.32;;;10.77;;
70467;SDS011;57934;51.532;7.684;2023-05-07T00:49:14;13.23;;;11.05;;
70467;SDS011;57934;51.532;7.684;2023-05-07T00:51:40;12.02;;;10.45;;
70467;SDS011;57934;51.532;7.684;2023-05-07T00:54:06;10.73;;;9.70;;
70467;SDS011;57934;51.532;7.684;2023-05-07T00:56:33;9.80;;;8.73;;
70467;SDS011;57934;51.532;7.684;2023-05-07T00:59:01;10.50;;;9.00;;
70467;SDS011;57934;51.532;7.684;2023-05-07T01:01:28;10.32;;;8.48;;
70467;SDS011;57934;51.532;7.684;2023-05-07T01:03:54;9.77;;;8.82;;
70467;SDS011;57934;51.532;7.684;2023-05-07T01:06:20;10.18;;;9.10;;
70467;SDS011;57934;51.532;7.684;2023-05-07T01:08:48;11.35;;;9.48;;
70467;SDS011;57934;51.532;7.684;2023-05-07T01:11:16;13.23;;;8.65;;
70467;SDS011;57934;51.532;7.684;2023-05-07T01:13:43;13.30;;;11.05;;
70467;SDS011;57934;51.532;7.684;2023-05-07T01:16:10;12.57;;;11.32;;
70467;SDS011;57934;51.532;7.684;2023-05-07T01:18:36;17.20;;;12.10;;
70467;SDS011;57934;51.532;7.684;2023-05-07T01:21:02;16.13;;;11.35;;
70467;SDS011;57934;51.532;7.684;2023-05-07T01:23:30;12.98;;;11.77;;
70467;SDS011;57934;51.532;7.684;2023-05-07T01:25:56;13.80;;;12.43;;
70467;SDS011;57934;51.532;7.684;2023-05-07T01:28:25;14.43;;;11.48;;
70467;SDS011;57934;51.532;7.684;2023-05-07T01:30:54;14.50;;;12.32;;
70467;SDS011;57934;51.532;7.684;2023-05-07T01:33:24;14.60;;;12.45;;
70467;SDS011;57934;51.532;7.684;2023-05-07T01:35:52;13.82;;;12.40;;
70467;SDS011;57934;51.532;7.684;2023-05-07T01:38:20;15.15;;;12.27;;
70467;SDS011;57934;51.532;7.684;2023-05-07T01:40:48;14.93;;;13.38;;
70467;SDS011;57934;51.532;7.684;2023-05-07T01:43:14;16.58;;;13.43;;
70467;SDS011;57934;51.532;7.684;2023-05-07T01:45:41;15.02;;;13.52;;
70467;SDS011;57934;51.532;7.684;2023-05-07T01:48:10;16.55;;;13.77;;
70467;SDS011;57934;51.532;7.684;2023-05-07T01:50:37;23.10;;;13.82;;
70467;SDS011;57934;51.532;7.684;2023-05-07T01:53:03;15.18;;;13.40;;
70467;SDS011;57934;51.532;7.684;2023-05-07T01:55:29;14.82;;;13.25;;
70467;SDS011;57934;51.532;7.684;2023-05-07T01:57:55;13.77;;;12.48;;
70467;SDS011;57934;51.532;7.684;2023-05-07T02:00:21;14.40;;;12.38;;
70467;SDS011;57934;51.532;7.684;2023-05-07T02:02:48;13.25;;;11.85;;
70467;SDS011;57934;51.532;7.684;2023-05-07T02:05:26;14.68;;;11.68;;
70467;SDS011;57934;51.532;7.684;2023-05-07T02:08:00;13.63;;;12.20;;
70467;SDS011;57934;51.532;7.684;2023-05-07T02:10:27;14.32;;;11.73;;
70467;SDS011;57934;51.532;7.684;2023-05-07T02:12:54;13.20;;;11.85;;
70467;SDS011;57934;51.532;7.684;2023-05-07T02:15:20;13.18;;;11.77;;
70467;SDS011;57934;51.532;7.684;2023-05-07T02:20:26;13.23;;;11.75;;
70467;SDS011;57934;51.532;7.684;2023-05-07T02:22:53;15.40;;;12.27;;
70467;SDS011;57934;51.532;7.684;2023-05-07T02:25:19;13.32;;;12.07;;
70467;SDS011;57934;51.532;7.684;2023-05-07T02:27:45;14.55;;;12.88;;
70467;SDS011;57934;51.532;7.684;2023-05-07T02:30:13;13.32;;;11.93;;
70467;SDS011;57934;51.532;7.684;2023-05-07T02:32:39;15.05;;;12.32;;
70467;SDS011;57934;51.532;7.684;2023-05-07T02:35:05;15.63;;;12.25;;
70467;SDS011;57934;51.532;7.684;2023-05-07T02:37:32;15.07;;;12.63;;
70467;SDS011;57934;51.532;7.684;2023-05-07T02:39:58;14.10;;;12.75;;
70467;SDS011;57934;51.532;7.684;2023-05-07T02:42:24;14.45;;;13.13;;
70467;SDS011;57934;51.532;7.684;2023-05-07T02:44:50;19.08;;;12.90;;
70467;SDS011;57934;51.532;7.684;2023-05-07T02:47:16;16.58;;;13.98;;
70467;SDS011;57934;51.532;7.684;2023-05-07T02:49:43;16.13;;;14.48;;
70467;SDS011;57934;51.532;7.684;2023-05-07T02:52:09;22.63;;;14.85;;
70467;SDS011;57934;51.532;7.684;2023-05-07T02:54:35;17.25;;;15.05;;
70467;SDS011;57934;51.532;7.684;2023-05-07T02:57:01;17.05;;;15.38;;
70467;SDS011;57934;51.532;7.684;2023-05-07T02:59:28;18.52;;;16.58;;
70467;SDS011;57934;51.532;7.684;2023-05-07T03:01:55;19.02;;;17.02;;
70467;SDS011;57934;51.532;7.684;2023-05-07T03:04:21;20.73;;;18.02;;
70467;SDS011;57934;51.532;7.684;2023-05-07T03:06:47;22.02;;;17.70;;
70467;SDS011;57934;51.532;7.684;2023-05-07T03:09:13;23.40;;;16.83;;
70467;SDS011;57934;51.532;7.684;2023-05-07T03:11:39;20.48;;;17.40;;
70467;SDS011;57934;51.532;7.684;2023-05-07T03:14:05;19.98;;;17.75;;
70467;SDS011;57934;51.532;7.684;2023-05-07T03:16:31;22.02;;;18.60;;
70467;SDS011;57934;51.532;7.684;2023-05-07T03:18:57;20.13;;;18.02;;
70467;SDS011;57934;51.532;7.684;2023-05-07T03:21:24;21.73;;;19.40;;
70467;SDS011;57934;51.532;7.684;2023-05-07T03:23:51;22.50;;;18.58;;
70467;SDS011;57934;51.532;7.684;2023-05-07T03:26:17;22.90;;;18.88;;
70467;SDS011;57934;51.532;7.684;2023-05-07T03:28:44;21.77;;;18.35;;
70467;SDS011;57934;51.532;7.684;2023-05-07T03:31:12;20.17;;;18.05;;
70467;SDS011;57934;51.532;7.684;2023-05-07T03:33:49;21.60;;;18.35;;
70467;SDS011;57934;51.532;7.684;2023-05-07T03:36:16;20.48;;;17.83;;
70467;SDS011;57934;51.532;7.684;2023-05-07T03:38:42;20.55;;;16.98;;
70467;SDS011;57934;51.532;7.684;2023-05-07T03:41:08;21.67;;;16.80;;
70467;SDS011;57934;51.532;7.684;2023-05-07T03:43:34;18.23;;;16.33;;
70467;SDS011;57934;51.532;7.684;2023-05-07T03:46:05;17.92;;;16.02;;
70467;SDS011;57934;51.532;7.684;2023-05-07T03:48:31;19.33;;;16.00;;
70467;SDS011;57934;51.532;7.684;2023-05-07T03:50:58;19.95;;;15.38;;
70467;SDS011;57934;51.532;7.684;2023-05-07T03:53:28;17.25;;;15.40;;
70467;SDS011;57934;51.532;7.684;2023-05-07T03:55:54;17.30;;;15.15;;
70467;SDS011;57934;51.532;7.684;2023-05-07T03:58:20;21.10;;;15.60;;
70467;SDS011;57934;51.532;7.684;2023-05-07T04:00:46;19.80;;;16.10;;
70467;SDS011;57934;51.532;7.684;2023-05-07T04:03:25;17.98;;;16.17;;
70467;SDS011;57934;51.532;7.684;2023-05-07T04:05:52;18.92;;;15.88;;
70467;SDS011;57934;51.532;7.684;2023-05-07T04:08:18;18.77;;;16.42;;
70467;SDS011;57934;51.532;7.684;2023-05-07T04:10:47;19.52;;;16.40;;
70467;SDS011;57934;51.532;7.684;2023-05-07T04:13:13;19.60;;;15.73;;
70467;SDS011;57934;51.532;7.684;2023-05-07T04:15:39;24.33;;;16.38;;
70467;SDS011;57934;51.532;7.684;2023-05-07T04:18:10;20.52;;;15.43;;
70467;SDS011;57934;51.532;7.684;2023-05-07T04:20:37;19.27;;;16.35;;
70467;SDS011;57934;51.532;7.684;2023-05-07T04:23:07;19.58;;;16.02;;
70467;SDS011;57934;51.532;7.684;2023-05-07T04:25:33;17.90;;;15.98;;
70467;SDS011;57934;51.532;7.684;2023-05-07T04:28:07;21.88;;;15.85;;
70467;SDS011;57934;51.532;7.684;2023-05-07T04:30:33;18.33;;;15.13;;
70467;SDS011;57934;51.532;7.684;2023-05-07T04:32:59;16.05;;;14.43;;
70467;SDS011;57934;51.532;7.684;2023-05-07T04:35:27;17.08;;;14.45;;
70467;SDS011;57934;51.532;7.684;2023-05-07T04:37:54;17.05;;;14.32;;
70467;SDS011;57934;51.532;7.684;2023-05-07T04:40:20;15.60;;;14.00;;
70467;SDS011;57934;51.532;7.684;2023-05-07T04:42:46;14.68;;;13.15;;
70467;SDS011;57934;51.532;7.684;2023-05-07T04:45:12;16.13;;;12.40;;
70467;SDS011;57934;51.532;7.684;2023-05-07T04:47:40;15.80;;;13.15;;
70467;SDS011;57934;51.532;7.684;2023-05-07T04:50:06;18.02;;;12.88;;
70467;SDS011;57934;51.532;7.684;2023-05-07T04:52:34;14.15;;;12.55;;
70467;SDS011;57934;51.532;7.684;2023-05-07T04:55:00;13.63;;;12.23;;
70467;SDS011;57934;51.532;7.684;2023-05-07T04:57:30;14.38;;;12.68;;
70467;SDS011;57934;51.532;7.684;2023-05-07T04:59:56;16.40;;;12.00;;
70467;SDS011;57934;51.532;7.684;2023-05-07T05:02:22;14.30;;;12.70;;
70467;SDS011;57934;51.532;7.684;2023-05-07T05:04:48;13.68;;;11.75;;
70467;SDS011;57934;51.532;7.684;2023-05-07T05:07:14;15.65;;;11.65;;
70467;SDS011;57934;51.532;7.684;2023-05-07T05:09:40;13.13;;;11.80;;
70467;SDS011;57934;51.532;7.684;2023-05-07T05:12:07;13.05;;;11.75;;
70467;SDS011;57934;51.532;7.684;2023-05-07T05:14:34;12.77;;;11.07;;
70467;SDS011;57934;51.532;7.684;2023-05-07T05:17:00;14.95;;;11.52;;
70467;SDS011;57934;51.532;7.684;2023-05-07T05:19:27;15.05;;;10.80;;
70467;SDS011;57934;51.532;7.684;2023-05-07T05:21:53;13.52;;;10.68;;
70467;SDS011;57934;51.532;7.684;2023-05-07T05:24:19;11.55;;;10.35;;
70467;SDS011;57934;51.532;7.684;2023-05-07T05:26:45;10.43;;;8.50;;
70467;SDS011;57934;51.532;7.684;2023-05-07T05:29:11;10.50;;;8.82;;
70467;SDS011;57934;51.532;7.684;2023-05-07T05:31:40;10.55;;;9.45;;
70467;SDS011;57934;51.532;7.684;2023-05-07T05:34:07;11.43;;;9.27;;
70467;SDS011;57934;51.532;7.684;2023-05-07T05:36:34;10.45;;;9.35;;
70467;SDS011;57934;51.532;7.684;2023-05-07T05:39:01;9.45;;;8.55;;
70467;SDS011;57934;51.532;7.684;2023-05-07T05:41:27;11.45;;;9.60;;
70467;SDS011;57934;51.532;7.684;2023-05-07T05:43:53;13.20;;;8.65;;
70467;SDS011;57934;51.532;7.684;2023-05-07T05:46:20;10.98;;;9.25;;
70467;SDS011;57934;51.532;7.684;2023-05-07T05:48:47;10.00;;;8.73;;
70467;SDS011;57934;51.532;7.684;2023-05-07T05:51:13;9.82;;;8.90;;
70467;SDS011;57934;51.532;7.684;2023-05-07T05:53:39;9.40;;;8.50;;
70467;SDS011;57934;51.532;7.684;2023-05-07T05:56:06;9.90;;;8.90;;
70467;SDS011;57934;51.532;7.684;2023-05-07T05:58:33;10.98;;;8.95;;
70467;SDS011;57934;51.532;7.684;2023-05-07T06:01:03;10.30;;;9.18;;
70467;SDS011;57934;51.532;7.684;2023-05-07T06:03:30;10.15;;;8.65;;
70467;SDS011;57934;51.532;7.684;2023-05-07T06:06:00;11.60;;;9.30;;
70467;SDS011;57934;51.532;7.684;2023-05-07T06:08:28;9.43;;;8.23;;
70467;SDS011;57934;51.532;7.684;2023-05-07T06:10:56;13.25;;;8.38;;
70467;SDS011;57934;51.532;7.684;2023-05-07T06:13:22;9.55;;;8.57;;
70467;SDS011;57934;51.532;7.684;2023-05-07T06:15:50;10.23;;;8.07;;
70467;SDS011;57934;51.532;7.684;2023-05-07T06:18:16;12.48;;;8.20;;
70467;SDS011;57934;51.532;7.684;2023-05-07T06:20:42;9.35;;;8.55;;
70467;SDS011;57934;51.532;7.684;2023-05-07T06:23:14;9.60;;;8.07;;
70467;SDS011;57934;51.532;7.684;2023-05-07T06:25:40;9.35;;;8.30;;
70467;SDS011;57934;51.532;7.684;2023-05-07T06:28:06;8.98;;;8.15;;
70467;SDS011;57934;51.532;7.684;2023-05-07T06:30:36;8.23;;;7.45;;
70467;SDS011;57934;51.532;7.684;2023-05-07T06:33:03;8.55;;;7.70;;
70467;SDS011;57934;51.532;7.684;2023-05-07T06:35:29;8.20;;;7.00;;
70467;SDS011;57934;51.532;7.684;2023-05-07T06:37:55;7.38;;;6.57;;
70467;SDS011;57934;51.532;7.684;2023-05-07T06:40:24;6.78;;;6.15;;
70467;SDS011;57934;51.532;7.684;2023-05-07T06:42:50;7.20;;;6.50;;
70467;SDS011;57934;51.532;7.684;2023-05-07T06:45:29;15.00;;;7.43;;
70467;SDS011;57934;51.532;7.684;2023-05-07T06:47:57;9.80;;;6.68;;
70467;SDS011;57934;51.532;7.684;2023-05-07T06:50:23;8.10;;;6.93;;
70467;SDS011;57934;51.532;7.684;2023-05-07T06:52:53;8.25;;;6.63;;
70467;SDS011;57934;51.532;7.684;2023-05-07T06:55:19;7.38;;;6.68;;
70467;SDS011;57934;51.532;7.684;2023-05-07T06:57:45;9.43;;;6.95;;
70467;SDS011;57934;51.532;7.684;2023-05-07T07:00:11;8.75;;;6.95;;
70467;SDS011;57934;51.532;7.684;2023-05-07T07:02:52;8.02;;;7.22;;
70467;SDS011;57934;51.532;7.684;2023-05-07T07:05:22;8.43;;;7.63;;
70467;SDS011;57934;51.532;7.684;2023-05-07T07:07:48;10.93;;;8.10;;
70467;SDS011;57934;51.532;7.684;2023-05-07T07:10:24;9.77;;;8.45;;
70467;SDS011;57934;51.532;7.684;2023-05-07T07:12:51;10.65;;;9.20;;
70467;SDS011;57934;51.532;7.684;2023-05-07T07:15:19;12.18;;;9.50;;
70467;SDS011;57934;51.532;7.684;2023-05-07T07:17:47;11.90;;;9.70;;
70467;SDS011;57934;51.532;7.684;2023-05-07T07:20:14;11.63;;;9.77;;
70467;SDS011;57934;51.532;7.684;2023-05-07T07:22:41;12.57;;;11.10;;
70467;SDS011;57934;51.532;7.684;2023-05-07T07:25:08;17.02;;;11.43;;
70467;SDS011;57934;51.532;7.684;2023-05-07T07:27:35;15.15;;;12.60;;
70467;SDS011;57934;51.532;7.684;2023-05-07T07:30:01;13.73;;;12.00;;
70467;SDS011;57934;51.532;7.684;2023-05-07T07:32:30;18.25;;;12.15;;
70467;SDS011;57934;51.532;7.684;2023-05-07T07:34:58;14.75;;;13.23;;
70467;SDS011;57934;51.532;7.684;2023-05-07T07:37:24;17.63;;;14.30;;
70467;SDS011;57934;51.532;7.684;2023-05-07T07:39:51;17.85;;;14.35;;
70467;SDS011;57934;51.532;7.684;2023-05-07T07:42:19;16.02;;;13.25;;
70467;SDS011;57934;51.532;7.684;2023-05-07T07:44:45;16.63;;;13.60;;
70467;SDS011;57934;51.532;7.684;2023-05-07T07:47:12;17.02;;;14.57;;
70467;SDS011;57934;51.532;7.684;2023-05-07T07:49:39;16.23;;;13.65;;
70467;SDS011;57934;51.532;7.684;2023-05-07T07:52:07;15.48;;;13.77;;
70467;SDS011;57934;51.532;7.684;2023-05-07T07:54:35;19.92;;;15.07;;
70467;SDS011;57934;51.532;7.684;2023-05-07T07:57:02;17.13;;;15.10;;
70467;SDS011;57934;51.532;7.684;2023-05-07T07:59:31;17.38;;;15.25;;
70467;SDS011;57934;51.532;7.684;2023-05-07T08:01:57;17.67;;;14.55;;
70467;SDS011;57934;51.532;7.684;2023-05-07T08:04:25;17.05;;;15.25;;
70467;SDS011;57934;51.532;7.684;2023-05-07T08:06:53;18.48;;;15.60;;
70467;SDS011;57934;51.532;7.684;2023-05-07T08:09:20;16.55;;;14.50;;
70467;SDS011;57934;51.532;7.684;2023-05-07T08:11:48;16.05;;;14.25;;
70467;SDS011;57934;51.532;7.684;2023-05-07T08:14:14;17.60;;;14.65;;
70467;SDS011;57934;51.532;7.684;2023-05-07T08:16:42;15.38;;;13.48;;
70467;SDS011;57934;51.532;7.684;2023-05-07T08:19:08;16.02;;;13.23;;
70467;SDS011;57934;51.532;7.684;2023-05-07T08:21:38;16.88;;;12.48;;
70467;SDS011;57934;51.532;7.684;2023-05-07T08:24:05;16.27;;;13.23;;
70467;SDS011;57934;51.532;7.684;2023-05-07T08:26:32;13.10;;;11.88;;
70467;SDS011;57934;51.532;7.684;2023-05-07T08:28:58;20.10;;;12.40;;
70467;SDS011;57934;51.532;7.684;2023-05-07T08:31:24;14.35;;;12.68;;
70467;SDS011;57934;51.532;7.684;2023-05-07T08:33:50;14.52;;;13.05;;
70467;SDS011;57934;51.532;7.684;2023-05-07T08:36:16;17.45;;;13.27;;
70467;SDS011;57934;51.532;7.684;2023-05-07T08:38:44;16.35;;;13.15;;
70467;SDS011;57934;51.532;7.684;2023-05-07T08:41:11;14.93;;;13.32;;
70467;SDS011;57934;51.532;7.684;2023-05-07T08:43:40;18.55;;;14.70;;
70467;SDS011;57934;51.532;7.684;2023-05-07T08:46:08;15.65;;;13.90;;
70467;SDS011;57934;51.532;7.684;2023-05-07T08:48:39;16.92;;;13.60;;
70467;SDS011;57934;51.532;7.684;2023-05-07T08:51:12;15.45;;;13.75;;
70467;SDS011;57934;51.532;7.684;2023-05-07T08:53:40;14.73;;;13.25;;
70467;SDS011;57934;51.532;7.684;2023-05-07T08:56:10;20.08;;;14.63;;
70467;SDS011;57934;51.532;7.684;2023-05-07T08:58:37;17.40;;;14.52;;
70467;SDS011;57934;51.532;7.684;2023-05-07T09:01:07;15.23;;;13.68;;
70467;SDS011;57934;51.532;7.684;2023-05-07T09:03:39;15.55;;;13.65;;
70467;SDS011;57934;51.532;7.684;2023-05-07T09:06:06;14.18;;;12.65;;
70467;SDS011;57934;51.532;7.684;2023-05-07T09:08:33;14.63;;;13.18;;
70467;SDS011;57934;51.532;7.684;2023-05-07T09:11:02;15.75;;;14.20;;
70467;SDS011;57934;51.532;7.684;2023-05-07T09:13:28;15.55;;;13.40;;
70467;SDS011;57934;51.532;7.684;2023-05-07T09:15:55;15.02;;;12.77;;
70467;SDS011;57934;51.532;7.684;2023-05-07T09:18:25;13.68;;;11.90;;
70467;SDS011;57934;51.532;7.684;2023-05-07T09:20:52;16.13;;;12.30;;
70467;SDS011;57934;51.532;7.684;2023-05-07T09:23:20;15.38;;;12.85;;
70467;SDS011;57934;51.532;7.684;2023-05-07T09:25:46;15.45;;;13.02;;
70467;SDS011;57934;51.532;7.684;2023-05-07T09:28:22;14.07;;;12.55;;
70467;SDS011;57934;51.532;7.684;2023-05-07T09:30:48;14.45;;;12.95;;
70467;SDS011;57934;51.532;7.684;2023-05-07T09:33:15;15.07;;;12.77;;
70467;SDS011;57934;51.532;7.684;2023-05-07T09:35:45;14.77;;;13.25;;
70467;SDS011;57934;51.532;7.684;2023-05-07T09:38:16;14.93;;;12.80;;
70467;SDS011;57934;51.532;7.684;2023-05-07T09:40:46;14.65;;;13.05;;
70467;SDS011;57934;51.532;7.684;2023-05-07T09:43:14;15.07;;;13.43;;
70467;SDS011;57934;51.532;7.684;2023-05-07T09:45:53;17.10;;;14.50;;
70467;SDS011;57934;51.532;7.684;2023-05-07T09:48:23;15.35;;;13.82;;
70467;SDS011;57934;51.532;7.684;2023-05-07T09:50:55;21.65;;;13.98;;
70467;SDS011;57934;51.532;7.684;2023-05-07T09:53:26;16.45;;;14.73;;
70467;SDS011;57934;51.532;7.684;2023-05-07T09:55:54;17.63;;;13.48;;
70467;SDS011;57934;51.532;7.684;2023-05-07T09:58:22;16.85;;;14.52;;
70467;SDS011;57934;51.532;7.684;2023-05-07T10:00:50;16.95;;;14.77;;
70467;SDS011;57934;51.532;7.684;2023-05-07T10:03:18;17.55;;;13.80;;
70467;SDS011;57934;51.532;7.684;2023-05-07T10:05:58;13.90;;;12.43;;
70467;SDS011;57934;51.532;7.684;2023-05-07T10:08:24;15.65;;;13.38;;
70467;SDS011;57934;51.532;7.684;2023-05-07T10:10:54;19.50;;;12.63;;
70467;SDS011;57934;51.532;7.684;2023-05-07T10:13:23;14.82;;;12.77;;
70467;SDS011;57934;51.532;7.684;2023-05-07T10:15:53;16.27;;;12.52;;
70467;SDS011;57934;51.532;7.684;2023-05-07T10:18:21;13.88;;;12.35;;
70467;SDS011;57934;51.532;7.684;2023-05-07T10:21:07;14.50;;;12.00;;
70467;SDS011;57934;51.532;7.684;2023-05-07T10:23:36;13.52;;;11.48;;
70467;SDS011;57934;51.532;7.684;2023-05-07T10:26:05;11.75;;;10.55;;
70467;SDS011;57934;51.532;7.684;2023-05-07T10:28:36;13.07;;;11.00;;
70467;SDS011;57934;51.532;7.684;2023-05-07T10:31:31;12.93;;;11.27;;
70467;SDS011;57934;51.532;7.684;2023-05-07T10:34:11;12.40;;;11.25;;
70467;SDS011;57934;51.532;7.684;2023-05-07T10:36:40;12.20;;;11.10;;
70467;SDS011;57934;51.532;7.684;2023-05-07T10:39:09;13.02;;;11.73;;
70467;SDS011;57934;51.532;7.684;2023-05-07T10:41:36;13.77;;;11.75;;
70467;SDS011;57934;51.532;7.684;2023-05-07T10:44:03;12.68;;;11.30;;
70467;SDS011;57934;51.532;7.684;2023-05-07T10:46:32;12.88;;;11.20;;
70467;SDS011;57934;51.532;7.684;2023-05-07T10:49:10;15.25;;;12.10;;
70467;SDS011;57934;51.532;7.684;2023-05-07T10:51:53;13.23;;;11.82;;
70467;SDS011;57934;51.532;7.684;2023-05-07T10:57:46;13.05;;;11.23;;
70467;SDS011;57934;51.532;7.684;2023-05-07T11:05:30;13.52;;;11.85;;
70467;SDS011;57934;51.532;7.684;2023-05-07T11:08:20;14.27;;;12.27;;
70467;SDS011;57934;51.532;7.684;2023-05-07T11:11:04;15.38;;;12.40;;
70467;SDS011;57934;51.532;7.684;2023-05-07T11:13:42;11.50;;;9.82;;
70467;SDS011;57934;51.532;7.684;2023-05-07T11:16:23;12.80;;;10.68;;
70467;SDS011;57934;51.532;7.684;2023-05-07T11:21:34;13.73;;;11.57;;
70467;SDS011;57934;51.532;7.684;2023-05-07T11:24:12;11.02;;;9.93;;
70467;SDS011;57934;51.532;7.684;2023-05-07T11:26:52;15.80;;;11.55;;
70467;SDS011;57934;51.532;7.684;2023-05-07T11:29:21;13.48;;;10.65;;
70467;SDS011;57934;51.532;7.684;2023-05-07T11:31:49;10.30;;;9.10;;
70467;SDS011;57934;51.532;7.684;2023-05-07T11:34:21;11.95;;;10.07;;
70467;SDS011;57934;51.532;7.684;2023-05-07T11:36:49;12.85;;;10.18;;
70467;SDS011;57934;51.532;7.684;2023-05-07T11:39:24;12.25;;;10.90;;
70467;SDS011;57934;51.532;7.684;2023-05-07T11:41:54;13.05;;;11.13;;
70467;SDS011;57934;51.532;7.684;2023-05-07T11:44:20;16.27;;;11.00;;
70467;SDS011;57934;51.532;7.684;2023-05-07T11:46:46;12.20;;;10.85;;
70467;SDS011;57934;51.532;7.684;2023-05-07T11:49:12;11.30;;;10.15;;
70467;SDS011;57934;51.532;7.684;2023-05-07T11:51:38;13.55;;;12.07;;
70467;SDS011;57934;51.532;7.684;2023-05-07T11:54:04;13.60;;;12.13;;
70467;SDS011;57934;51.532;7.684;2023-05-07T11:56:34;13.38;;;10.82;;
70467;SDS011;57934;51.532;7.684;2023-05-07T11:59:01;11.90;;;9.55;;
70467;SDS011;57934;51.532;7.684;2023-05-07T12:01:27;11.32;;;10.13;;
70467;SDS011;57934;51.532;7.684;2023-05-07T12:03:53;12.13;;;9.93;;
70467;SDS011;57934;51.532;7.684;2023-05-07T12:06:19;13.73;;;10.93;;
70467;SDS011;57934;51.532;7.684;2023-05-07T12:08:45;10.98;;;9.85;;
70467;SDS011;57934;51.532;7.684;2023-05-07T12:11:15;9.68;;;8.48;;
70467;SDS011;57934;51.532;7.684;2023-05-07T12:13:47;9.90;;;7.65;;
70467;SDS011;57934;51.532;7.684;2023-05-07T12:16:13;10.48;;;8.48;;
70467;SDS011;57934;51.532;7.684;2023-05-07T12:18:40;10.25;;;7.60;;
70467;SDS011;57934;51.532;7.684;2023-05-07T12:21:07;8.77;;;6.82;;
70467;SDS011;57934;51.532;7.684;2023-05-07T12:23:34;9.52;;;7.57;;
70467;SDS011;57934;51.532;7.684;2023-05-07T12:26:01;9.00;;;6.95;;
70467;SDS011;57934;51.532;7.684;2023-05-07T12:28:30;7.90;;;6.82;;
70467;SDS011;57934;51.532;7.684;2023-05-07T12:31:01;10.35;;;6.15;;
70467;SDS011;57934;51.532;7.684;2023-05-07T12:33:27;6.50;;;5.60;;
70467;SDS011;57934;51.532;7.684;2023-05-07T12:35:55;6.43;;;5.82;;
70467;SDS011;57934;51.532;7.684;2023-05-07T12:38:22;6.93;;;6.22;;
70467;SDS011;57934;51.532;7.684;2023-05-07T12:40:48;5.88;;;5.28;;
70467;SDS011;57934;51.532;7.684;2023-05-07T12:43:26;9.02;;;5.53;;
70467;SDS011;57934;51.532;7.684;2023-05-07T12:45:54;7.32;;;6.63;;
70467;SDS011;57934;51.532;7.684;2023-05-07T12:48:21;9.98;;;7.00;;
70467;SDS011;57934;51.532;7.684;2023-05-07T12:50:51;8.73;;;7.82;;
70467;SDS011;57934;51.532;7.684;2023-05-07T12:53:20;9.13;;;6.93;;
70467;SDS011;57934;51.532;7.684;2023-05-07T12:55:48;8.75;;;7.78;;
70467;SDS011;57934;51.532;7.684;2023-05-07T12:58:19;10.35;;;7.80;;
70467;SDS011;57934;51.532;7.684;2023-05-07T13:00:47;8.90;;;6.88;;
70467;SDS011;57934;51.532;7.684;2023-05-07T13:03:25;6.03;;;5.43;;
70467;SDS011;57934;51.532;7.684;2023-05-07T13:05:57;7.30;;;5.85;;
70467;SDS011;57934;51.532;7.684;2023-05-07T13:08:24;6.40;;;5.25;;
70467;SDS011;57934;51.532;7.684;2023-05-07T13:10:56;7.13;;;4.97;;
70467;SDS011;57934;51.532;7.684;2023-05-07T13:13:23;6.15;;;5.55;;
70467;SDS011;57934;51.532;7.684;2023-05-07T13:15:49;5.70;;;5.20;;
70467;SDS011;57934;51.532;7.684;2023-05-07T13:18:15;6.18;;;5.60;;
70467;SDS011;57934;51.532;7.684;2023-05-07T13:20:41;7.70;;;6.45;;
70467;SDS011;57934;51.532;7.684;2023-05-07T13:23:07;8.07;;;6.95;;
70467;SDS011;57934;51.532;7.684;2023-05-07T13:25:33;9.63;;;6.70;;
70467;SDS011;57934;51.532;7.684;2023-05-07T13:27:58;7.10;;;6.38;;
70467;SDS011;57934;51.532;7.684;2023-05-07T13:30:25;8.38;;;7.47;;
70467;SDS011;57934;51.532;7.684;2023-05-07T13:32:53;8.38;;;7.47;;
70467;SDS011;57934;51.532;7.684;2023-05-07T13:35:21;8.52;;;7.53;;
70467;SDS011;57934;51.532;7.684;2023-05-07T13:37:47;10.70;;;7.47;;
70467;SDS011;57934;51.532;7.684;2023-05-07T13:40:17;10.65;;;8.25;;
70467;SDS011;57934;51.532;7.684;2023-05-07T13:42:47;9.15;;;7.13;;
70467;SDS011;57934;51.532;7.684;2023-05-07T13:45:14;10.00;;;7.68;;
70467;SDS011;57934;51.532;7.684;2023-05-07T13:47:41;7.95;;;7.15;;
70467;SDS011;57934;51.532;7.684;2023-05-07T13:50:08;8.43;;;7.07;;
70467;SDS011;57934;51.532;7.684;2023-05-07T13:52:34;10.75;;;7.50;;
70467;SDS011;57934;51.532;7.684;2023-05-07T13:55:00;7.88;;;7.07;;
70467;SDS011;57934;51.532;7.684;2023-05-07T13:57:26;7.50;;;6.72;;
70467;SDS011;57934;51.532;7.684;2023-05-07T13:59:52;8.43;;;6.75;;
70467;SDS011;57934;51.532;7.684;2023-05-07T14:02:18;7.88;;;6.40;;
70467;SDS011;57934;51.532;7.684;2023-05-07T14:04:44;10.07;;;7.50;;
70467;SDS011;57934;51.532;7.684;2023-05-07T14:07:10;8.30;;;7.47;;
70467;SDS011;57934;51.532;7.684;2023-05-07T14:09:36;9.02;;;6.85;;
70467;SDS011;57934;51.532;7.684;2023-05-07T14:12:02;8.82;;;7.85;;
70467;SDS011;57934;51.532;7.684;2023-05-07T14:14:28;9.25;;;7.28;;
70467;SDS011;57934;51.532;7.684;2023-05-07T14:16:54;8.50;;;7.57;;
70467;SDS011;57934;51.532;7.684;2023-05-07T14:19:20;8.52;;;7.53;;
70467;SDS011;57934;51.532;7.684;2023-05-07T14:21:48;9.02;;;7.07;;
70467;SDS011;57934;51.532;7.684;2023-05-07T14:24:14;8.50;;;6.47;;
70467;SDS011;57934;51.532;7.684;2023-05-07T14:26:40;9.40;;;6.55;;
70467;SDS011;57934;51.532;7.684;2023-05-07T14:29:06;6.82;;;6.22;;
70467;SDS011;57934;51.532;7.684;2023-05-07T14:31:32;6.97;;;5.60;;
70467;SDS011;57934;51.532;7.684;2023-05-07T14:33:58;5.30;;;4.75;;
70467;SDS011;57934;51.532;7.684;2023-05-07T14:36:25;10.00;;;5.40;;
70467;SDS011;57934;51.532;7.684;2023-05-07T14:38:55;6.38;;;4.85;;
70467;SDS011;57934;51.532;7.684;2023-05-07T14:41:22;6.00;;;5.40;;
70467;SDS011;57934;51.532;7.684;2023-05-07T14:43:48;5.93;;;5.35;;
70467;SDS011;57934;51.532;7.684;2023-05-07T14:46:16;5.95;;;5.32;;